Time,TemperatureF,DewpointF,PressureIn,WindDirection,WindDirectionDegrees,WindSpeedMPH,WindSpeedGustMPH,Humidity,HourlyPrecipIn,Conditions,Clouds,dailyrainin,SolarRadiationWatts/m^2,SoftwareType,DateUTC
2013-08-24 00:04:00,54.7,51.2,29.76,SW,233,0.0,0.0,88,0.00,,,0.00,0,WeatherCatV1.21B27,2013-08-24 07:04:00,
2013-08-24 00:09:00,54.5,51.3,29.76,SW,234,0.0,0.0,89,0.00,,,0.00,0,WeatherCatV1.21B27,2013-08-24 07:09:00,
2013-08-24 00:14:00,54.4,51.2,29.76,SW,234,0.0,0.0,89,0.00,,,0.00,0,WeatherCatV1.21B27,2013-08-24 07:14:00,
2013-08-24 00:19:00,54.2,51.0,29.76,SW,236,0.0,0.0,89,0.00,,,0.00,0,WeatherCatV1.21B27,2013-08-24 07:19:00,
2013-08-24 00:24:00,54.2,51.0,29.76,WSW,237,0.0,0.0,89,0.00,,,0.00,0,WeatherCatV1.21B27,2013-08-24 07:24:00,
2013-08-24 00:29:00,54.2,51.0,29.76,SW,234,0.0,0.0,89,0.00,,,0.00,0,WeatherCatV1.21B27,2013-08-24 07:29:00,
2013-08-24 00:34:00,54.1,50.9,29.76,SW,236,0.0,0.0,89,0.00,,,0.00,0,WeatherCatV1.21B27,2013-08-24 07:34:00,
2013-08-24 00:39:00,54.1,50.9,29.76,SW,233,0.0,0.0,89,0.00,,,0.00,0,WeatherCatV1.21B27,2013-08-24 07:39:00,
2013-08-24 00:44:00,53.9,50.7,29.76,SW,234,0.0,0.0,89,0.00,,,0.00,0,WeatherCatV1.21B27,2013-08-24 07:44:00,
2013-08-24 00:49:00,53.9,50.7,29.76,SW,232,0.0,0.0,89,0.00,,,0.00,0,WeatherCatV1.21B27,2013-08-24 07:49:00,
2013-08-24 00:54:00,53.8,50.6,29.76,SW,229,0.0,0.0,89,0.00,,,0.00,0,WeatherCatV1.21B27,2013-08-24 07:54:00,
2013-08-24 00:59:00,53.8,50.6,29.76,SW,230,0.0,0.0,89,0.00,,,0.00,0,WeatherCatV1.21B27,2013-08-24 07:59:00,
2013-08-24 01:04:00,53.6,50.4,29.76,SW,229,0.0,0.0,89,0.00,,,0.00,0,WeatherCatV1.21B27,2013-08-24 08:04:00,
2013-08-24 01:09:00,53.6,50.4,29.76,SW,230,0.0,0.0,89,0.00,,,0.00,0,WeatherCatV1.21B27,2013-08-24 08:09:00,
2013-08-24 01:14:00,53.5,50.6,29.76,SW,227,0.0,0.0,90,0.00,,,0.00,0,WeatherCatV1.21B27,2013-08-24 08:14:00,
2013-08-24 01:19:00,53.5,50.6,29.76,SW,227,0.0,0.0,90,0.00,,,0.00,0,WeatherCatV1.21B27,2013-08-24 08:19:00,
2013-08-24 01:24:00,53.3,50.4,29.76,SW,230,0.0,0.0,90,0.00,,,0.00,0,WeatherCatV1.21B27,2013-08-24 08:24:00,
2013-08-24 01:29:00,53.3,50.4,29.75,SW,229,0.0,0.0,90,0.00,,,0.00,0,WeatherCatV1.21B27,2013-08-24 08:29:00,
2013-08-24 01:34:00,53.2,50.3,29.75,SW,229,0.0,0.0,90,0.00,,,0.00,0,WeatherCatV1.21B27,2013-08-24 08:34:00,
2013-08-24 01:39:00,53.1,50.2,29.75,SW,227,0.0,0.0,90,0.00,,,0.00,0,WeatherCatV1.21B27,2013-08-24 08:39:00,
2013-08-24 01:44:00,53.1,50.2,29.75,SW,226,0.0,0.0,90,0.00,,,0.00,0,WeatherCatV1.21B27,2013-08-24 08:44:00,
2013-08-24 01:49:00,52.9,50.0,29.75,SW,226,0.0,0.0,90,0.00,,,0.00,0,WeatherCatV1.21B27,2013-08-24 08:49:00,
2013-08-24 01:54:00,52.9,50.0,29.75,SW,227,0.0,0.0,90,0.00,,,0.00,0,WeatherCatV1.21B27,2013-08-24 08:54:00,
2013-08-24 01:59:00,52.9,50.0,29.76,SW,226,0.0,0.0,90,0.00,,,0.00,0,WeatherCatV1.21B27,2013-08-24 08:59:00,
2013-08-24 02:04:00,52.8,50.0,29.76,SW,227,0.0,0.0,90,0.00,,,0.00,0,WeatherCatV1.21B27,2013-08-24 09:04:00,
2013-08-24 02:09:00,52.6,49.8,29.76,SW,227,0.0,0.0,90,0.00,,,0.00,0,WeatherCatV1.21B27,2013-08-24 09:09:00,
2013-08-24 02:14:00,52.6,49.8,29.75,SW,229,0.0,0.0,90,0.00,,,0.00,0,WeatherCatV1.21B27,2013-08-24 09:14:00,
2013-08-24 02:19:00,52.5,49.7,29.75,SW,229,0.0,0.0,90,0.00,,,0.00,0,WeatherCatV1.21B27,2013-08-24 09:19:00,
2013-08-24 02:24:00,52.5,50.0,29.75,SW,227,0.0,0.0,91,0.00,,,0.00,0,WeatherCatV1.21B27,2013-08-24 09:24:00,
2013-08-24 02:29:00,52.3,49.8,29.75,SW,226,0.0,0.0,91,0.00,,,0.00,0,WeatherCatV1.21B27,2013-08-24 09:29:00,
2013-08-24 02:34:00,52.2,49.7,29.75,SW,227,0.0,0.0,91,0.00,,,0.00,0,WeatherCatV1.21B27,2013-08-24 09:34:00,
2013-08-24 02:39:00,52.2,49.7,29.75,SW,227,0.0,0.0,91,0.00,,,0.00,0,WeatherCatV1.21B27,2013-08-24 09:39:00,
2013-08-24 02:44:00,52.0,49.5,29.75,SW,226,0.0,0.0,91,0.00,,,0.00,0,WeatherCatV1.21B27,2013-08-24 09:44:00,
2013-08-24 02:49:00,52.0,49.5,29.75,SW,226,0.0,0.0,91,0.00,,,0.00,0,WeatherCatV1.21B27,2013-08-24 09:49:00,
2013-08-24 02:54:00,51.9,49.3,29.75,SW,227,0.0,0.0,91,0.00,,,0.00,0,WeatherCatV1.21B27,2013-08-24 09:54:00,
2013-08-24 02:59:00,51.9,49.3,29.76,SW,230,0.0,0.0,91,0.00,,,0.00,0,WeatherCatV1.21B27,2013-08-24 09:59:00,
2013-08-24 03:04:00,51.7,49.2,29.76,SW,230,0.0,0.0,91,0.00,,,0.00,0,WeatherCatV1.21B27,2013-08-24 10:04:00,
2013-08-24 03:09:00,51.7,49.2,29.76,SW,229,0.0,0.0,91,0.00,,,0.00,0,WeatherCatV1.21B27,2013-08-24 10:09:00,
2013-08-24 03:14:00,51.7,49.2,29.76,SW,226,0.0,0.0,91,0.00,,,0.00,0,WeatherCatV1.21B27,2013-08-24 10:14:00,
2013-08-24 03:19:00,51.7,49.2,29.76,SW,227,0.0,0.0,91,0.00,,,0.00,0,WeatherCatV1.21B27,2013-08-24 10:19:00,
2013-08-24 03:24:00,51.7,49.2,29.76,SW,229,0.0,0.0,91,0.00,,,0.00,0,WeatherCatV1.21B27,2013-08-24 10:24:00,
2013-08-24 03:29:00,51.6,49.1,29.76,SW,229,0.0,0.0,91,0.00,,,0.00,0,WeatherCatV1.21B27,2013-08-24 10:29:00,
2013-08-24 03:34:00,51.6,49.3,29.76,SW,230,0.0,0.0,92,0.00,,,0.00,0,WeatherCatV1.21B27,2013-08-24 10:34:00,
2013-08-24 03:39:00,51.4,48.9,29.76,SW,233,0.0,0.0,91,0.00,,,0.00,0,WeatherCatV1.21B27,2013-08-24 10:39:00,
2013-08-24 03:44:00,51.4,49.2,29.76,SW,233,0.0,0.0,92,0.00,,,0.00,0,WeatherCatV1.21B27,2013-08-24 10:44:00,
2013-08-24 03:49:00,51.4,49.2,29.76,SW,233,0.0,0.0,92,0.00,,,0.00,0,WeatherCatV1.21B27,2013-08-24 10:49:00,
2013-08-24 03:54:00,51.4,49.2,29.76,SW,232,0.0,0.0,92,0.00,,,0.00,0,WeatherCatV1.21B27,2013-08-24 10:54:00,
2013-08-24 03:59:00,51.4,49.2,29.76,SW,233,0.0,0.0,92,0.00,,,0.00,0,WeatherCatV1.21B27,2013-08-24 10:59:00,
2013-08-24 04:04:00,51.3,49.0,29.76,SW,233,0.0,0.0,92,0.00,,,0.00,0,WeatherCatV1.21B27,2013-08-24 11:04:00,
2013-08-24 04:09:00,51.3,49.0,29.76,SW,234,0.0,0.0,92,0.00,,,0.00,0,WeatherCatV1.21B27,2013-08-24 11:09:00,
2013-08-24 04:14:00,51.3,49.0,29.76,SW,234,0.0,0.0,92,0.00,,,0.00,0,WeatherCatV1.21B27,2013-08-24 11:14:00,
2013-08-24 04:19:00,51.3,49.0,29.76,SW,234,0.0,0.0,92,0.00,,,0.00,0,WeatherCatV1.21B27,2013-08-24 11:19:00,
2013-08-24 04:24:00,51.0,48.8,29.76,WSW,237,0.0,0.0,92,0.00,,,0.00,0,WeatherCatV1.21B27,2013-08-24 11:24:00,
2013-08-24 04:29:00,51.0,48.8,29.76,WSW,237,0.0,0.0,92,0.00,,,0.00,0,WeatherCatV1.21B27,2013-08-24 11:29:00,
2013-08-24 04:34:00,50.8,48.6,29.76,WSW,237,0.0,0.0,92,0.00,,,0.00,0,WeatherCatV1.21B27,2013-08-24 11:34:00,
2013-08-24 04:39:00,50.8,48.6,29.76,WSW,239,0.0,0.0,92,0.00,,,0.00,0,WeatherCatV1.21B27,2013-08-24 11:39:00,
2013-08-24 04:44:00,50.8,48.6,29.75,SW,236,0.0,0.0,92,0.00,,,0.00,0,WeatherCatV1.21B27,2013-08-24 11:44:00,
2013-08-24 04:49:00,50.7,48.5,29.75,SW,236,0.0,0.0,92,0.00,,,0.00,0,WeatherCatV1.21B27,2013-08-24 11:49:00,
2013-08-24 04:54:00,50.7,48.5,29.75,WSW,239,0.0,0.0,92,0.00,,,0.00,0,WeatherCatV1.21B27,2013-08-24 11:54:00,
2013-08-24 04:59:00,50.7,48.5,29.75,WSW,239,0.0,0.0,92,0.00,,,0.00,0,WeatherCatV1.21B27,2013-08-24 11:59:00,
2013-08-24 05:04:00,50.5,48.3,29.75,SW,234,0.0,0.0,92,0.00,,,0.00,0,WeatherCatV1.21B27,2013-08-24 12:04:00,
2013-08-24 05:09:00,50.5,48.3,29.75,WSW,239,0.0,0.0,92,0.00,,,0.00,0,WeatherCatV1.21B27,2013-08-24 12:09:00,
2013-08-24 05:14:00,50.5,48.3,29.75,WSW,239,0.0,0.0,92,0.00,,,0.00,0,WeatherCatV1.21B27,2013-08-24 12:14:00,
2013-08-24 05:19:00,50.5,48.3,29.75,SW,236,0.0,0.0,92,0.00,,,0.00,0,WeatherCatV1.21B27,2013-08-24 12:19:00,
2013-08-24 05:24:00,50.5,48.3,29.75,SW,233,0.0,0.0,92,0.00,,,0.00,0,WeatherCatV1.21B27,2013-08-24 12:24:00,
2013-08-24 05:29:00,50.5,48.3,29.75,WSW,239,0.0,0.0,92,0.00,,,0.00,0,WeatherCatV1.21B27,2013-08-24 12:29:00,
2013-08-24 05:34:00,50.5,48.3,29.75,West,274,0.0,0.0,92,0.00,,,0.00,0,WeatherCatV1.21B27,2013-08-24 12:34:00,
2013-08-24 05:39:00,50.5,48.3,29.75,NW,306,0.0,0.0,92,0.00,,,0.00,0,WeatherCatV1.21B27,2013-08-24 12:39:00,
2013-08-24 05:44:00,50.4,48.2,29.75,NW,316,0.0,0.0,92,0.00,,,0.00,0,WeatherCatV1.21B27,2013-08-24 12:44:00,
2013-08-24 05:49:00,50.4,48.2,29.75,NW,323,0.0,0.0,92,0.00,,,0.00,0,WeatherCatV1.21B27,2013-08-24 12:49:00,
2013-08-24 05:54:00,50.4,48.2,29.75,NNW,333,0.0,0.0,92,0.00,,,0.00,0,WeatherCatV1.21B27,2013-08-24 12:54:00,
2013-08-24 05:59:00,50.2,48.0,29.76,NNW,330,0.0,0.0,92,0.00,,,0.00,0,WeatherCatV1.21B27,2013-08-24 12:59:00,
2013-08-24 06:04:00,50.2,48.0,29.76,NNW,333,0.0,0.0,92,0.00,,,0.00,0,WeatherCatV1.21B27,2013-08-24 13:04:00,
2013-08-24 06:09:00,50.1,47.9,29.76,NNW,339,0.0,0.0,92,0.00,,,0.00,0,WeatherCatV1.21B27,2013-08-24 13:09:00,
2013-08-24 06:14:00,50.1,47.9,29.76,NNW,332,0.0,0.0,92,0.00,,,0.00,0,WeatherCatV1.21B27,2013-08-24 13:14:00,
2013-08-24 06:19:00,49.9,47.7,29.76,NNW,330,0.0,0.0,92,0.00,,,0.00,0,WeatherCatV1.21B27,2013-08-24 13:19:00,
2013-08-24 06:24:00,49.9,47.7,29.76,NNW,337,0.0,0.0,92,0.00,,,0.00,0,WeatherCatV1.21B27,2013-08-24 13:24:00,
2013-08-24 06:29:00,49.8,47.6,29.76,NNW,337,0.0,0.0,92,0.00,,,0.00,0,WeatherCatV1.21B27,2013-08-24 13:29:00,
2013-08-24 06:34:00,49.8,47.9,29.76,NNW,335,0.0,0.0,93,0.00,,,0.00,0,WeatherCatV1.21B27,2013-08-24 13:34:00,
2013-08-24 06:39:00,49.8,47.9,29.76,NNW,336,0.0,0.0,93,0.00,,,0.00,0,WeatherCatV1.21B27,2013-08-24 13:39:00,
2013-08-24 06:44:00,49.6,47.7,29.76,NNW,335,0.0,0.0,93,0.00,,,0.00,0,WeatherCatV1.21B27,2013-08-24 13:44:00,
2013-08-24 06:49:00,49.8,47.9,29.76,NNW,335,0.0,0.0,93,0.00,,,0.00,5,WeatherCatV1.21B27,2013-08-24 13:49:00,
2013-08-24 06:54:00,49.8,47.9,29.76,NW,325,0.0,0.0,93,0.00,,,0.00,7,WeatherCatV1.21B27,2013-08-24 13:54:00,
2013-08-24 06:59:00,49.8,47.9,29.77,NNW,335,0.0,0.0,93,0.00,,,0.00,7,WeatherCatV1.21B27,2013-08-24 13:59:00,
2013-08-24 07:04:00,49.8,47.9,29.77,NNW,329,0.0,0.0,93,0.00,,,0.00,7,WeatherCatV1.21B27,2013-08-24 14:04:00,
2013-08-24 07:09:00,50.1,48.2,29.77,SW,227,0.0,0.0,93,0.00,,,0.00,7,WeatherCatV1.21B27,2013-08-24 14:09:00,
2013-08-24 07:14:00,50.2,48.2,29.77,NNW,330,0.0,0.0,93,0.00,,,0.00,33,WeatherCatV1.21B27,2013-08-24 14:14:00,
2013-08-24 07:19:00,50.7,49.0,29.77,NNW,330,0.0,0.0,94,0.00,,,0.00,33,WeatherCatV1.21B27,2013-08-24 14:19:00,
2013-08-24 07:24:00,50.7,49.0,29.77,NW,318,0.0,0.0,94,0.00,,,0.00,33,WeatherCatV1.21B27,2013-08-24 14:24:00,
2013-08-24 07:29:00,51.1,49.4,29.77,NNW,336,0.0,0.0,94,0.00,,,0.00,33,WeatherCatV1.21B27,2013-08-24 14:29:00,
2013-08-24 07:34:00,51.6,49.9,29.77,NNW,330,0.0,0.0,94,0.00,,,0.00,33,WeatherCatV1.21B27,2013-08-24 14:34:00,
2013-08-24 07:39:00,51.7,50.0,29.77,North,353,0.0,0.0,94,0.00,,,0.00,33,WeatherCatV1.21B27,2013-08-24 14:39:00,
2013-08-24 07:44:00,52.2,50.5,29.77,North,354,0.0,0.0,94,0.00,,,0.00,172,WeatherCatV1.21B27,2013-08-24 14:44:00,
2013-08-24 07:49:00,53.2,51.5,29.77,NNW,329,0.0,0.0,94,0.00,,,0.00,172,WeatherCatV1.21B27,2013-08-24 14:49:00,
2013-08-24 07:54:00,53.2,51.8,29.77,North,354,0.0,0.0,95,0.00,,,0.00,172,WeatherCatV1.21B27,2013-08-24 14:54:00,
2013-08-24 07:59:00,55.6,54.2,29.78,North,354,0.0,0.0,95,0.00,,,0.00,215,WeatherCatV1.21B27,2013-08-24 14:59:00,
2013-08-24 08:04:00,56.5,55.1,29.78,North,349,0.0,0.0,95,0.00,,,0.00,215,WeatherCatV1.21B27,2013-08-24 15:04:00,
2013-08-24 08:09:00,57.0,55.3,29.78,North,353,0.0,0.0,94,0.00,,,0.00,215,WeatherCatV1.21B27,2013-08-24 15:09:00,
2013-08-24 08:14:00,58.0,56.3,29.78,NNW,344,0.0,0.0,94,0.00,,,0.00,215,WeatherCatV1.21B27,2013-08-24 15:14:00,
2013-08-24 08:19:00,58.0,56.3,29.78,North,356,0.0,0.0,94,0.00,,,0.00,215,WeatherCatV1.21B27,2013-08-24 15:19:00,
2013-08-24 08:24:00,59.5,57.8,29.78,North,357,0.0,0.0,94,0.00,,,0.00,215,WeatherCatV1.21B27,2013-08-24 15:24:00,
2013-08-24 08:29:00,60.2,58.5,29.78,NNW,333,0.0,0.0,94,0.00,,,0.00,215,WeatherCatV1.21B27,2013-08-24 15:29:00,
2013-08-24 08:34:00,60.2,58.5,29.78,North,357,0.0,0.0,94,0.00,,,0.00,215,WeatherCatV1.21B27,2013-08-24 15:34:00,
2013-08-24 08:39:00,61.3,59.6,29.78,NNW,336,0.0,0.0,94,0.00,,,0.00,215,WeatherCatV1.21B27,2013-08-24 15:39:00,
2013-08-24 08:44:00,61.6,59.8,29.78,NNW,342,0.0,0.0,94,0.00,,,0.00,382,WeatherCatV1.21B27,2013-08-24 15:44:00,
2013-08-24 08:49:00,62.1,60.3,29.78,NNW,347,0.0,1.0,94,0.00,,,0.00,389,WeatherCatV1.21B27,2013-08-24 15:49:00,
2013-08-24 08:54:00,62.4,56.1,29.78,NNW,333,0.0,0.0,80,0.00,,,0.00,419,WeatherCatV1.21B27,2013-08-24 15:54:00,
2013-08-24 08:59:00,63.1,56.1,29.78,North,353,1.0,1.0,78,0.00,,,0.00,426,WeatherCatV1.21B27,2013-08-24 15:59:00,
2013-08-24 09:04:00,63.5,56.2,29.78,North,349,0.0,0.0,77,0.00,,,0.00,426,WeatherCatV1.21B27,2013-08-24 16:04:00,
2013-08-24 09:09:00,64.2,55.7,29.78,NNW,335,0.0,0.0,74,0.00,,,0.00,468,WeatherCatV1.21B27,2013-08-24 16:09:00,
2013-08-24 09:14:00,65.2,55.5,29.79,NNW,337,0.0,1.0,71,0.00,,,0.00,486,WeatherCatV1.21B27,2013-08-24 16:14:00,
2013-08-24 09:19:00,65.8,56.1,29.79,NNW,343,0.0,1.0,71,0.00,,,0.00,498,WeatherCatV1.21B27,2013-08-24 16:19:00,
2013-08-24 09:24:00,66.1,56.4,29.79,NNW,346,2.0,3.0,71,0.00,,,0.00,517,WeatherCatV1.21B27,2013-08-24 16:24:00,
2013-08-24 09:29:00,66.1,56.4,29.79,North,353,0.0,0.0,71,0.00,,,0.00,517,WeatherCatV1.21B27,2013-08-24 16:29:00,
2013-08-24 09:34:00,66.0,56.3,29.79,NNW,339,1.0,3.0,71,0.00,,,0.00,517,WeatherCatV1.21B27,2013-08-24 16:34:00,
2013-08-24 09:39:00,66.1,56.4,29.79,NNW,337,2.0,2.0,71,0.00,,,0.00,517,WeatherCatV1.21B27,2013-08-24 16:39:00,
2013-08-24 09:44:00,66.4,56.7,29.79,North,354,0.0,0.0,71,0.00,,,0.00,517,WeatherCatV1.21B27,2013-08-24 16:44:00,
2013-08-24 09:49:00,66.1,56.4,29.79,NW,326,0.0,0.0,71,0.00,,,0.00,517,WeatherCatV1.21B27,2013-08-24 16:49:00,
2013-08-24 09:54:00,65.8,56.1,29.79,NW,318,1.0,7.0,71,0.00,,,0.00,595,WeatherCatV1.21B27,2013-08-24 16:54:00,
2013-08-24 09:59:00,65.3,55.7,29.79,NNW,330,0.0,1.0,71,0.00,,,0.00,619,WeatherCatV1.21B27,2013-08-24 16:59:00,
2013-08-24 10:04:00,65.0,55.8,29.79,NW,313,0.0,2.0,72,0.00,,,0.00,619,WeatherCatV1.21B27,2013-08-24 17:04:00,
2013-08-24 10:09:00,65.5,55.8,29.79,NW,323,0.0,0.0,71,0.00,,,0.00,635,WeatherCatV1.21B27,2013-08-24 17:09:00,
2013-08-24 10:14:00,66.1,56.0,29.80,NNW,335,3.0,3.0,70,0.00,,,0.00,656,WeatherCatV1.21B27,2013-08-24 17:14:00,
2013-08-24 10:19:00,66.4,55.9,29.80,NW,325,0.0,0.0,69,0.00,,,0.00,656,WeatherCatV1.21B27,2013-08-24 17:19:00,
2013-08-24 10:24:00,66.9,55.6,29.80,NNW,332,0.0,6.0,67,0.00,,,0.00,670,WeatherCatV1.21B27,2013-08-24 17:24:00,
2013-08-24 10:29:00,66.8,55.5,29.80,NNW,330,0.0,1.0,67,0.00,,,0.00,693,WeatherCatV1.21B27,2013-08-24 17:29:00,
2013-08-24 10:34:00,67.1,55.8,29.80,NNW,329,0.0,1.0,67,0.00,,,0.00,704,WeatherCatV1.21B27,2013-08-24 17:34:00,
2013-08-24 10:39:00,67.8,56.0,29.80,NW,309,0.0,2.0,66,0.00,,,0.00,704,WeatherCatV1.21B27,2013-08-24 17:39:00,
2013-08-24 10:44:00,68.1,56.3,29.80,NNW,329,0.0,0.0,66,0.00,,,0.00,725,WeatherCatV1.21B27,2013-08-24 17:44:00,
2013-08-24 10:49:00,69.1,57.2,29.80,West,272,3.0,3.0,66,0.00,,,0.00,730,WeatherCatV1.21B27,2013-08-24 17:49:00,
2013-08-24 10:54:00,69.8,56.6,29.80,NNW,329,1.0,4.0,63,0.00,,,0.00,744,WeatherCatV1.21B27,2013-08-24 17:54:00,
2013-08-24 10:59:00,70.1,56.9,29.80,NNW,329,0.0,0.0,63,0.00,,,0.00,744,WeatherCatV1.21B27,2013-08-24 17:59:00,
2013-08-24 11:04:00,69.3,55.7,29.80,NW,306,7.0,7.0,62,0.00,,,0.00,744,WeatherCatV1.21B27,2013-08-24 18:04:00,
2013-08-24 11:09:00,69.4,55.8,29.80,NW,316,1.0,2.0,62,0.00,,,0.00,776,WeatherCatV1.21B27,2013-08-24 18:09:00,
2013-08-24 11:14:00,69.8,56.2,29.80,NW,311,1.0,3.0,62,0.00,,,0.00,781,WeatherCatV1.21B27,2013-08-24 18:14:00,
2013-08-24 11:19:00,70.3,57.1,29.80,NW,316,2.0,2.0,63,0.00,,,0.00,797,WeatherCatV1.21B27,2013-08-24 18:19:00,
2013-08-24 11:24:00,70.4,57.2,29.80,NW,319,0.0,0.0,63,0.00,,,0.00,806,WeatherCatV1.21B27,2013-08-24 18:24:00,
2013-08-24 11:29:00,70.8,57.6,29.80,NW,312,1.0,6.0,63,0.00,,,0.00,806,WeatherCatV1.21B27,2013-08-24 18:29:00,
2013-08-24 11:34:00,71.3,57.1,29.80,NW,306,6.0,6.0,61,0.00,,,0.00,820,WeatherCatV1.21B27,2013-08-24 18:34:00,
2013-08-24 11:39:00,71.5,57.3,29.80,NW,326,3.0,5.0,61,0.00,,,0.00,820,WeatherCatV1.21B27,2013-08-24 18:39:00,
2013-08-24 11:44:00,71.3,57.6,29.80,NW,320,5.0,5.0,62,0.00,,,0.00,845,WeatherCatV1.21B27,2013-08-24 18:44:00,
2013-08-24 11:49:00,71.3,57.6,29.80,WNW,285,0.0,3.0,62,0.00,,,0.00,848,WeatherCatV1.21B27,2013-08-24 18:49:00,
2013-08-24 11:54:00,70.9,57.2,29.80,WNW,301,0.0,0.0,62,0.00,,,0.00,894,WeatherCatV1.21B27,2013-08-24 18:54:00,
2013-08-24 11:59:00,71.8,57.2,29.80,WSW,254,0.0,1.0,60,0.00,,,0.00,911,WeatherCatV1.21B27,2013-08-24 18:59:00,
2013-08-24 12:04:00,72.7,57.5,29.80,NNW,332,0.0,2.0,59,0.00,,,0.00,948,WeatherCatV1.21B27,2013-08-24 19:04:00,
2013-08-24 12:09:00,72.7,57.5,29.80,NW,318,2.0,3.0,59,0.00,,,0.00,850,WeatherCatV1.21B27,2013-08-24 19:09:00,
2013-08-24 12:14:00,72.3,57.2,29.80,NW,326,2.0,2.0,59,0.00,,,0.00,850,WeatherCatV1.21B27,2013-08-24 19:14:00,
2013-08-24 12:19:00,72.5,57.3,29.80,North,356,1.0,1.0,59,0.00,,,0.00,850,WeatherCatV1.21B27,2013-08-24 19:19:00,
2013-08-24 12:24:00,72.7,57.5,29.80,NNW,336,0.0,1.0,59,0.00,,,0.00,887,WeatherCatV1.21B27,2013-08-24 19:24:00,
2013-08-24 12:29:00,72.3,56.7,29.80,NW,315,0.0,1.0,58,0.00,,,0.00,873,WeatherCatV1.21B27,2013-08-24 19:29:00,
2013-08-24 12:34:00,72.1,57.0,29.80,NNW,335,0.0,2.0,59,0.00,,,0.00,825,WeatherCatV1.21B27,2013-08-24 19:34:00,
2013-08-24 12:39:00,72.3,57.2,29.80,WNW,295,0.0,1.0,59,0.00,,,0.00,906,WeatherCatV1.21B27,2013-08-24 19:39:00,
2013-08-24 12:44:00,72.3,57.2,29.80,NW,323,0.0,3.0,59,0.00,,,0.00,906,WeatherCatV1.21B27,2013-08-24 19:44:00,
2013-08-24 12:49:00,72.7,57.5,29.80,NW,304,1.0,1.0,59,0.00,,,0.00,906,WeatherCatV1.21B27,2013-08-24 19:49:00,
2013-08-24 12:54:00,73.0,57.8,29.80,NW,311,1.0,1.0,59,0.00,,,0.00,906,WeatherCatV1.21B27,2013-08-24 19:54:00,
2013-08-24 12:59:00,73.2,57.5,29.80,NW,309,1.0,5.0,58,0.00,,,0.00,906,WeatherCatV1.21B27,2013-08-24 19:59:00,
2013-08-24 13:04:00,73.5,56.8,29.80,NW,315,0.0,1.0,56,0.00,,,0.00,906,WeatherCatV1.21B27,2013-08-24 20:04:00,
2013-08-24 13:09:00,73.5,56.8,29.80,WNW,298,1.0,2.0,56,0.00,,,0.00,897,WeatherCatV1.21B27,2013-08-24 20:09:00,
2013-08-24 13:14:00,73.5,56.8,29.79,NW,319,1.0,1.0,56,0.00,,,0.00,897,WeatherCatV1.21B27,2013-08-24 20:14:00,
2013-08-24 13:19:00,73.5,56.8,29.79,NNW,346,0.0,0.0,56,0.00,,,0.00,897,WeatherCatV1.21B27,2013-08-24 20:19:00,
2013-08-24 13:24:00,75.4,58.6,29.79,North,356,0.0,0.0,56,0.00,,,0.00,897,WeatherCatV1.21B27,2013-08-24 20:24:00,
2013-08-24 13:29:00,76.5,58.1,29.78,North,0,0.0,0.0,53,0.00,,,0.00,876,WeatherCatV1.21B27,2013-08-24 20:29:00,
2013-08-24 13:34:00,76.5,58.1,29.78,North,353,0.0,2.0,53,0.00,,,0.00,892,WeatherCatV1.21B27,2013-08-24 20:34:00,
2013-08-24 13:39:00,77.7,59.2,29.78,North,357,0.0,6.0,53,0.00,,,0.00,896,WeatherCatV1.21B27,2013-08-24 20:39:00,
2013-08-24 13:44:00,78.6,60.0,29.78,North,357,6.0,6.0,53,0.00,,,0.00,896,WeatherCatV1.21B27,2013-08-24 20:44:00,
2013-08-24 13:49:00,78.5,57.7,29.78,North,357,2.0,2.0,49,0.00,,,0.00,896,WeatherCatV1.21B27,2013-08-24 20:49:00,
2013-08-24 13:54:00,77.6,56.9,29.78,North,357,1.0,5.0,49,0.00,,,0.00,896,WeatherCatV1.21B27,2013-08-24 20:54:00,
2013-08-24 13:59:00,75.4,54.9,29.79,NNW,347,2.0,2.0,49,0.00,,,0.00,908,WeatherCatV1.21B27,2013-08-24 20:59:00,
2013-08-24 14:04:00,75.6,55.1,29.79,North,356,3.0,5.0,49,0.00,,,0.00,908,WeatherCatV1.21B27,2013-08-24 21:04:00,
2013-08-24 14:09:00,76.1,55.5,29.79,North,357,1.0,1.0,49,0.00,,,0.00,908,WeatherCatV1.21B27,2013-08-24 21:09:00,
2013-08-24 14:14:00,76.7,57.7,29.78,North,353,1.0,1.0,52,0.00,,,0.00,908,WeatherCatV1.21B27,2013-08-24 21:14:00,
2013-08-24 14:19:00,77.0,58.0,29.78,North,357,1.0,2.0,52,0.00,,,0.00,662,WeatherCatV1.21B27,2013-08-24 21:19:00,
2013-08-24 14:24:00,75.6,56.7,29.78,North,0,0.0,5.0,52,0.00,,,0.00,662,WeatherCatV1.21B27,2013-08-24 21:24:00,
2013-08-24 14:29:00,75.4,56.5,29.78,North,0,3.0,3.0,52,0.00,,,0.00,913,WeatherCatV1.21B27,2013-08-24 21:29:00,
2013-08-24 14:34:00,75.4,56.5,29.78,North,354,2.0,7.0,52,0.00,,,0.00,913,WeatherCatV1.21B27,2013-08-24 21:34:00,
2013-08-24 14:39:00,75.8,58.0,29.78,North,357,0.0,2.0,54,0.00,,,0.00,913,WeatherCatV1.21B27,2013-08-24 21:39:00,
2013-08-24 14:44:00,76.1,57.7,29.78,North,356,1.0,2.0,53,0.00,,,0.00,913,WeatherCatV1.21B27,2013-08-24 21:44:00,
2013-08-24 14:49:00,76.5,58.1,29.78,North,357,0.0,1.0,53,0.00,,,0.00,913,WeatherCatV1.21B27,2013-08-24 21:49:00,
2013-08-24 14:54:00,76.7,58.3,29.78,North,357,2.0,3.0,53,0.00,,,0.00,913,WeatherCatV1.21B27,2013-08-24 21:54:00,
2013-08-24 14:59:00,76.8,57.8,29.77,North,354,2.0,2.0,52,0.00,,,0.00,913,WeatherCatV1.21B27,2013-08-24 21:59:00,
2013-08-24 15:04:00,77.6,58.6,29.77,North,356,3.0,3.0,52,0.00,,,0.00,857,WeatherCatV1.21B27,2013-08-24 22:04:00,
2013-08-24 15:09:00,77.7,58.7,29.77,North,357,0.0,5.0,52,0.00,,,0.00,813,WeatherCatV1.21B27,2013-08-24 22:09:00,
2013-08-24 15:14:00,78.6,59.5,29.77,North,0,3.0,5.0,52,0.00,,,0.00,813,WeatherCatV1.21B27,2013-08-24 22:14:00,
2013-08-24 15:19:00,78.8,59.7,29.77,North,357,1.0,2.0,52,0.00,,,0.00,813,WeatherCatV1.21B27,2013-08-24 22:19:00,
2013-08-24 15:24:00,78.3,59.2,29.77,North,0,6.0,6.0,52,0.00,,,0.00,813,WeatherCatV1.21B27,2013-08-24 22:24:00,
2013-08-24 15:29:00,77.7,58.7,29.77,North,0,0.0,1.0,52,0.00,,,0.00,813,WeatherCatV1.21B27,2013-08-24 22:29:00,
2013-08-24 15:34:00,77.4,58.4,29.77,North,353,0.0,6.0,52,0.00,,,0.00,813,WeatherCatV1.21B27,2013-08-24 22:34:00,
2013-08-24 15:39:00,77.0,58.0,29.77,North,357,0.0,7.0,52,0.00,,,0.00,334,WeatherCatV1.21B27,2013-08-24 22:39:00,
2013-08-24 15:44:00,77.0,58.5,29.77,North,357,1.0,6.0,53,0.00,,,0.00,334,WeatherCatV1.21B27,2013-08-24 22:44:00,
2013-08-24 15:49:00,76.8,57.8,29.77,NNW,347,3.0,3.0,52,0.00,,,0.00,334,WeatherCatV1.21B27,2013-08-24 22:49:00,
2013-08-24 15:54:00,76.7,58.3,29.77,North,0,0.0,1.0,53,0.00,,,0.00,334,WeatherCatV1.21B27,2013-08-24 22:54:00,
2013-08-24 15:59:00,76.7,58.3,29.77,North,357,1.0,1.0,53,0.00,,,0.00,334,WeatherCatV1.21B27,2013-08-24 22:59:00,
2013-08-24 16:04:00,76.0,57.6,29.77,North,0,0.0,1.0,53,0.00,,,0.00,334,WeatherCatV1.21B27,2013-08-24 23:04:00,
2013-08-24 16:09:00,75.6,57.2,29.77,North,0,1.0,2.0,53,0.00,,,0.00,104,WeatherCatV1.21B27,2013-08-24 23:09:00,
2013-08-24 16:14:00,75.1,58.3,29.77,North,0,3.0,6.0,56,0.00,,,0.00,130,WeatherCatV1.21B27,2013-08-24 23:14:00,
2013-08-24 16:19:00,75.1,58.3,29.77,North,357,1.0,3.0,56,0.00,,,0.00,69,WeatherCatV1.21B27,2013-08-24 23:19:00,
2013-08-24 16:24:00,74.7,57.9,29.77,North,0,0.0,4.0,56,0.00,,,0.00,65,WeatherCatV1.21B27,2013-08-24 23:24:00,
2013-08-24 16:29:00,74.6,57.8,29.78,North,0,1.0,2.0,56,0.00,,,0.00,65,WeatherCatV1.21B27,2013-08-24 23:29:00,
2013-08-24 16:34:00,73.7,57.5,29.78,North,0,1.0,1.0,57,0.00,,,0.00,65,WeatherCatV1.21B27,2013-08-24 23:34:00,
2013-08-24 16:39:00,73.5,57.3,29.78,North,0,1.0,6.0,57,0.00,,,0.00,65,WeatherCatV1.21B27,2013-08-24 23:39:00,
2013-08-24 16:44:00,73.5,57.3,29.77,North,0,1.0,1.0,57,0.00,,,0.00,65,WeatherCatV1.21B27,2013-08-24 23:44:00,
2013-08-24 16:49:00,73.0,56.8,29.77,North,353,1.0,1.0,57,0.00,,,0.00,67,WeatherCatV1.21B27,2013-08-24 23:49:00,
2013-08-24 16:54:00,72.8,56.7,29.77,North,0,0.0,0.0,57,0.00,,,0.00,67,WeatherCatV1.21B27,2013-08-24 23:54:00,
2013-08-24 16:59:00,72.7,57.5,29.77,North,353,1.0,6.0,59,0.00,,,0.00,76,WeatherCatV1.21B27,2013-08-24 23:59:00,
2013-08-24 17:04:00,72.5,57.8,29.77,North,357,0.0,2.0,60,0.00,,,0.00,76,WeatherCatV1.21B27,2013-08-25 00:04:00,
2013-08-24 17:09:00,72.3,57.6,29.77,North,0,1.0,2.0,60,0.00,,,0.00,76,WeatherCatV1.21B27,2013-08-25 00:09:00,
2013-08-24 17:14:00,72.1,57.4,29.77,North,357,1.0,1.0,60,0.00,,,0.00,76,WeatherCatV1.21B27,2013-08-25 00:14:00,
2013-08-24 17:19:00,71.8,57.2,29.77,North,0,1.0,1.0,60,0.00,,,0.00,76,WeatherCatV1.21B27,2013-08-25 00:19:00,
2013-08-24 17:24:00,71.8,57.2,29.77,North,357,1.0,5.0,60,0.00,,,0.00,76,WeatherCatV1.21B27,2013-08-25 00:24:00,
2013-08-24 17:29:00,71.8,57.2,29.77,North,357,2.0,2.0,60,0.00,,,0.00,76,WeatherCatV1.21B27,2013-08-25 00:29:00,
2013-08-24 17:34:00,71.5,56.9,29.77,North,0,0.0,2.0,60,0.00,,,0.00,76,WeatherCatV1.21B27,2013-08-25 00:34:00,
2013-08-24 17:39:00,71.3,56.7,29.77,North,0,0.0,0.0,60,0.00,,,0.00,77,WeatherCatV1.21B27,2013-08-25 00:39:00,
2013-08-24 17:44:00,71.3,56.7,29.77,North,357,3.0,10.0,60,0.00,,,0.00,55,WeatherCatV1.21B27,2013-08-25 00:44:00,
2013-08-24 17:49:00,70.6,57.8,29.77,North,0,0.0,2.0,64,0.00,,,0.00,55,WeatherCatV1.21B27,2013-08-25 00:49:00,
2013-08-24 17:54:00,70.3,57.5,29.77,North,357,0.0,2.0,64,0.00,,,0.00,55,WeatherCatV1.21B27,2013-08-25 00:54:00,
2013-08-24 17:59:00,70.1,57.3,29.77,North,357,2.0,2.0,64,0.00,,,0.00,55,WeatherCatV1.21B27,2013-08-25 00:59:00,
2013-08-24 18:04:00,69.8,57.1,29.77,North,357,0.0,6.0,64,0.00,,,0.00,55,WeatherCatV1.21B27,2013-08-25 01:04:00,
2013-08-24 18:09:00,69.6,57.3,29.77,North,357,0.0,2.0,65,0.00,,,0.00,55,WeatherCatV1.21B27,2013-08-25 01:09:00,
2013-08-24 18:14:00,69.6,57.3,29.77,North,357,4.0,4.0,65,0.00,,,0.00,55,WeatherCatV1.21B27,2013-08-25 01:14:00,
2013-08-24 18:19:00,69.4,57.1,29.77,North,357,1.0,3.0,65,0.00,,,0.00,55,WeatherCatV1.21B27,2013-08-25 01:19:00,
2013-08-24 18:24:00,69.4,57.1,29.77,North,354,6.0,6.0,65,0.00,,,0.00,135,WeatherCatV1.21B27,2013-08-25 01:24:00,
2013-08-24 18:29:00,69.4,57.1,29.77,North,354,6.0,6.0,65,0.00,,,0.00,135,WeatherCatV1.21B27,2013-08-25 01:29:00,
2013-08-24 18:34:00,-999.0,-99.9,29.77,North,-999,-999.0,6.0,-999,0.00,,,0.00,,WeatherCatV1.21B27,2013-08-25 01:34:00,
2013-08-24 18:39:00,-999.0,-99.9,29.77,North,-999,-999.0,0.0,-999,0.00,,,0.00,,WeatherCatV1.21B27,2013-08-25 01:39:00,
2013-08-24 18:44:00,-999.0,-99.9,29.77,North,-999,-999.0,0.0,-999,0.00,,,0.00,,WeatherCatV1.21B27,2013-08-25 01:44:00,
2013-08-24 18:49:00,-999.0,-99.9,29.77,North,-999,-999.0,0.0,-999,0.00,,,0.00,,WeatherCatV1.21B27,2013-08-25 01:49:00,
2013-08-24 18:54:00,-999.0,-99.9,29.77,North,-999,-999.0,0.0,-999,0.00,,,0.00,,WeatherCatV1.21B27,2013-08-25 01:54:00,
2013-08-24 18:59:00,-999.0,-99.9,29.77,North,-999,-999.0,0.0,-999,0.00,,,0.00,,WeatherCatV1.21B27,2013-08-25 01:59:00,
2013-08-24 19:04:00,-999.0,-99.9,29.77,North,-999,-999.0,0.0,-999,0.00,,,0.00,,WeatherCatV1.21B27,2013-08-25 02:04:00,
2013-08-24 19:09:00,-999.0,-99.9,29.77,North,-999,-999.0,0.0,-999,0.00,,,0.00,,WeatherCatV1.21B27,2013-08-25 02:09:00,
2013-08-24 19:14:00,-999.0,-99.9,29.77,North,-999,-999.0,0.0,-999,0.00,,,0.00,,WeatherCatV1.21B27,2013-08-25 02:14:00,
2013-08-24 19:19:00,-999.0,-99.9,29.77,North,-999,-999.0,0.0,-999,0.00,,,0.00,,WeatherCatV1.21B27,2013-08-25 02:19:00,
2013-08-24 19:24:00,-999.0,-99.9,29.77,North,-999,-999.0,0.0,-999,0.00,,,0.00,,WeatherCatV1.21B27,2013-08-25 02:24:00,
2013-08-24 19:29:00,-999.0,-99.9,29.77,North,-999,-999.0,0.0,-999,0.00,,,0.00,,WeatherCatV1.21B27,2013-08-25 02:29:00,
2013-08-24 19:34:00,-999.0,-99.9,29.77,North,-999,-999.0,0.0,-999,0.00,,,0.00,,WeatherCatV1.21B27,2013-08-25 02:34:00,
2013-08-24 19:39:00,-999.0,-99.9,29.77,North,-999,-999.0,0.0,-999,0.00,,,0.00,,WeatherCatV1.21B27,2013-08-25 02:39:00,
2013-08-24 19:44:00,-999.0,-99.9,29.77,North,-999,-999.0,0.0,-999,0.00,,,0.00,,WeatherCatV1.21B27,2013-08-25 02:44:00,
2013-08-24 19:49:00,-999.0,-99.9,29.77,North,-999,-999.0,0.0,-999,0.00,,,0.00,,WeatherCatV1.21B27,2013-08-25 02:49:00,
2013-08-24 19:54:00,-999.0,-99.9,29.77,North,-999,-999.0,0.0,-999,0.00,,,0.00,,WeatherCatV1.21B27,2013-08-25 02:54:00,
2013-08-24 19:59:00,-999.0,-99.9,29.77,North,-999,-999.0,0.0,-999,0.00,,,0.00,,WeatherCatV1.21B27,2013-08-25 02:59:00,
2013-08-24 20:04:00,-999.0,-99.9,29.77,North,-999,-999.0,0.0,-999,0.00,,,0.00,,WeatherCatV1.21B27,2013-08-25 03:04:00,
2013-08-24 20:09:00,-999.0,-99.9,29.77,North,-999,-999.0,0.0,-999,0.00,,,0.00,,WeatherCatV1.21B27,2013-08-25 03:09:00,
2013-08-24 20:14:00,-999.0,-99.9,29.77,North,-999,-999.0,0.0,-999,0.00,,,0.00,,WeatherCatV1.21B27,2013-08-25 03:14:00,
2013-08-24 20:19:00,-999.0,-99.9,29.77,North,-999,-999.0,0.0,-999,0.00,,,0.00,,WeatherCatV1.21B27,2013-08-25 03:19:00,
2013-08-24 20:24:00,-999.0,-99.9,29.77,North,-999,-999.0,0.0,-999,0.00,,,0.00,,WeatherCatV1.21B27,2013-08-25 03:24:00,
2013-08-24 20:29:00,-999.0,-99.9,29.77,North,-999,-999.0,0.0,-999,0.00,,,0.00,,WeatherCatV1.21B27,2013-08-25 03:29:00,
2013-08-24 20:34:00,-999.0,-99.9,29.77,NW,309,0.0,0.0,75,0.00,,,0.00,,WeatherCatV1.21B27,2013-08-25 03:34:00,
2013-08-24 20:39:00,-999.0,-99.9,29.77,WSW,258,0.0,0.0,76,0.00,,,0.00,,WeatherCatV1.21B27,2013-08-25 03:39:00,
2013-08-24 20:44:00,65.3,57.5,29.78,WSW,253,0.0,0.0,76,0.00,,,0.00,,WeatherCatV1.21B27,2013-08-25 03:44:00,
2013-08-24 20:49:00,65.3,57.5,29.78,West,267,0.0,0.0,76,0.00,,,0.00,,WeatherCatV1.21B27,2013-08-25 03:49:00,
2013-08-24 20:54:00,65.3,57.5,29.78,WNW,284,0.0,0.0,76,0.00,,,0.00,,WeatherCatV1.21B27,2013-08-25 03:54:00,
2013-08-24 20:59:00,65.2,57.4,29.79,West,281,0.0,2.0,76,0.00,,,0.00,0,WeatherCatV1.21B27,2013-08-25 03:59:00,
2013-08-24 21:04:00,65.0,58.0,29.79,WNW,295,0.0,0.0,78,0.00,,,0.00,0,WeatherCatV1.21B27,2013-08-25 04:04:00,
2013-08-24 21:09:00,65.0,58.0,29.79,West,281,0.0,0.0,78,0.00,,,0.00,0,WeatherCatV1.21B27,2013-08-25 04:09:00,
2013-08-24 21:14:00,64.8,57.8,29.79,WNW,285,0.0,1.0,78,0.00,,,0.00,0,WeatherCatV1.21B27,2013-08-25 04:14:00,
2013-08-24 21:19:00,64.8,58.1,29.79,West,278,0.0,0.0,79,0.00,,,0.00,0,WeatherCatV1.21B27,2013-08-25 04:19:00,
2013-08-24 21:24:00,64.7,58.0,29.79,WNW,295,0.0,0.0,79,0.00,,,0.00,0,WeatherCatV1.21B27,2013-08-25 04:24:00,
2013-08-24 21:29:00,64.5,57.8,29.79,WNW,282,0.0,0.0,79,0.00,,,0.00,0,WeatherCatV1.21B27,2013-08-25 04:29:00,
2013-08-24 21:34:00,64.5,57.8,29.79,WNW,294,0.0,0.0,79,0.00,,,0.00,0,WeatherCatV1.21B27,2013-08-25 04:34:00,
2013-08-24 21:39:00,64.3,58.0,29.79,NW,305,0.0,0.0,80,0.00,,,0.00,0,WeatherCatV1.21B27,2013-08-25 04:39:00,
2013-08-24 21:44:00,64.2,57.9,29.80,NW,304,0.0,0.0,80,0.00,,,0.00,0,WeatherCatV1.21B27,2013-08-25 04:44:00,
2013-08-24 21:49:00,64.0,57.7,29.80,NW,304,0.0,0.0,80,0.00,,,0.00,0,WeatherCatV1.21B27,2013-08-25 04:49:00,
2013-08-24 21:54:00,63.9,57.6,29.80,WNW,295,0.0,0.0,80,0.00,,,0.00,0,WeatherCatV1.21B27,2013-08-25 04:54:00,
2013-08-24 22:04:00,63.7,57.8,29.80,West,274,0.0,0.0,81,0.00,,,0.00,0,WeatherCatV1.21B27,2013-08-25 05:04:00,
2013-08-24 22:09:00,63.5,57.6,29.80,WNW,287,0.0,0.0,81,0.00,,,0.00,0,WeatherCatV1.21B27,2013-08-25 05:09:00,
2013-08-24 22:14:00,63.4,57.8,29.80,West,274,0.0,0.0,82,0.00,,,0.00,0,WeatherCatV1.21B27,2013-08-25 05:14:00,
2013-08-24 22:19:00,63.4,57.8,29.80,WNW,282,0.0,0.0,82,0.00,,,0.00,0,WeatherCatV1.21B27,2013-08-25 05:19:00,
2013-08-24 22:24:00,63.2,57.6,29.80,West,278,0.0,0.0,82,0.00,,,0.00,0,WeatherCatV1.21B27,2013-08-25 05:24:00,
2013-08-24 22:29:00,63.1,57.8,29.81,WNW,287,0.0,0.0,83,0.00,,,0.00,0,WeatherCatV1.21B27,2013-08-25 05:29:00,
2013-08-24 22:34:00,63.1,57.8,29.81,West,275,0.0,0.0,83,0.00,,,0.00,0,WeatherCatV1.21B27,2013-08-25 05:34:00,
2013-08-24 22:39:00,62.9,57.7,29.81,West,263,0.0,0.0,83,0.00,,,0.00,0,WeatherCatV1.21B27,2013-08-25 05:39:00,
2013-08-24 22:44:00,62.7,57.5,29.80,WNW,289,0.0,0.0,83,0.00,,,0.00,0,WeatherCatV1.21B27,2013-08-25 05:44:00,
2013-08-24 22:49:00,62.6,57.4,29.80,West,268,0.0,0.0,83,0.00,,,0.00,0,WeatherCatV1.21B27,2013-08-25 05:49:00,
2013-08-24 22:54:00,62.4,57.2,29.80,West,274,0.0,0.0,83,0.00,,,0.00,0,WeatherCatV1.21B27,2013-08-25 05:54:00,
2013-08-24 22:59:00,62.4,57.5,29.81,WNW,289,0.0,0.0,84,0.00,,,0.00,0,WeatherCatV1.21B27,2013-08-25 05:59:00,
2013-08-24 23:04:00,62.3,57.4,29.81,WNW,292,0.0,0.0,84,0.00,,,0.00,0,WeatherCatV1.21B27,2013-08-25 06:04:00,
2013-08-24 23:09:00,62.1,57.2,29.81,WNW,287,0.0,0.0,84,0.00,,,0.00,0,WeatherCatV1.21B27,2013-08-25 06:09:00,
2013-08-24 23:14:00,62.0,57.4,29.81,WNW,294,0.0,0.0,85,0.00,,,0.00,0,WeatherCatV1.21B27,2013-08-25 06:14:00,
2013-08-24 23:19:00,61.8,57.2,29.81,WNW,289,0.0,0.0,85,0.00,,,0.00,0,WeatherCatV1.21B27,2013-08-25 06:19:00,
2013-08-24 23:24:00,61.6,57.0,29.81,WNW,291,0.0,0.0,85,0.00,,,0.00,0,WeatherCatV1.21B27,2013-08-25 06:24:00,
2013-08-24 23:29:00,61.5,56.9,29.80,WNW,284,0.0,0.0,85,0.00,,,0.00,0,WeatherCatV1.21B27,2013-08-25 06:29:00,
2013-08-24 23:34:00,61.3,56.8,29.80,WNW,282,0.0,0.0,85,0.00,,,0.00,0,WeatherCatV1.21B27,2013-08-25 06:34:00,
2013-08-24 23:39:00,61.2,56.7,29.80,West,277,0.0,0.0,85,0.00,,,0.00,0,WeatherCatV1.21B27,2013-08-25 06:39:00,
2013-08-24 23:44:00,61.2,56.7,29.81,West,274,0.0,0.0,85,0.00,,,0.00,0,WeatherCatV1.21B27,2013-08-25 06:44:00,
2013-08-24 23:49:00,61.0,56.5,29.81,West,270,0.0,0.0,85,0.00,,,0.00,0,WeatherCatV1.21B27,2013-08-25 06:49:00,
2013-08-24 23:54:00,61.0,56.5,29.81,West,264,0.0,1.0,85,0.00,,,0.00,0,WeatherCatV1.21B27,2013-08-25 06:54:00,
2013-08-24 23:59:00,61.0,56.5,29.82,West,272,0.0,0.0,85,0.00,,,0.00,0,WeatherCatV1.21B27,2013-08-25 06:59:00,